createdAt,value
2018-05-11T00:00:14.787Z,17.49
2018-05-11T00:02:42.249Z,17.45
2018-05-11T00:05:09.676Z,17.52
2018-05-11T00:07:37.692Z,17.53
2018-05-11T00:10:05.148Z,17.51
2018-05-11T00:12:32.678Z,17.49
2018-05-11T00:15:00.205Z,17.44
2018-05-11T00:17:27.803Z,17.47
2018-05-11T00:19:55.394Z,17.46
2018-05-11T00:22:22.936Z,17.38
2018-05-11T00:24:50.442Z,17.31
2018-05-11T00:27:18.912Z,17.27
2018-05-11T00:32:39.211Z,17.29
2018-05-11T00:35:06.703Z,17.29
2018-05-11T00:37:34.634Z,17.32
2018-05-11T00:40:02.091Z,17.21
2018-05-11T00:42:29.561Z,17.26
2018-05-11T00:44:57.004Z,17.29
2018-05-11T00:47:24.899Z,17.26
2018-05-11T00:49:52.348Z,17.25
2018-05-11T00:52:20.056Z,17.26
2018-05-11T00:54:48.648Z,17.20
2018-05-11T00:57:17.244Z,17.14
2018-05-11T00:59:44.720Z,17.09
2018-05-11T01:02:12.256Z,17.10
2018-05-11T01:04:39.828Z,17.06
2018-05-11T01:07:07.420Z,16.95
2018-05-11T01:09:34.946Z,16.93
2018-05-11T01:12:02.526Z,16.91
2018-05-11T01:14:30.096Z,16.87
2018-05-11T01:16:57.742Z,16.79
2018-05-11T01:19:49.008Z,16.70
2018-05-11T01:22:16.556Z,16.63
2018-05-11T01:24:44.074Z,16.61
2018-05-11T01:27:11.604Z,16.51
2018-05-11T01:29:39.170Z,16.44
2018-05-11T01:32:06.708Z,16.40
2018-05-11T01:34:34.359Z,16.39
2018-05-11T01:37:01.854Z,16.28
2018-05-11T01:39:34.366Z,16.25
2018-05-11T01:42:02.112Z,16.22
2018-05-11T01:44:29.646Z,16.25
2018-05-11T01:46:57.210Z,16.27
2018-05-11T01:52:17.180Z,16.27
2018-05-11T01:54:44.630Z,16.31
2018-05-11T01:57:12.085Z,16.29
2018-05-11T01:59:39.516Z,16.29
2018-05-11T02:02:06.980Z,16.19
2018-05-11T02:04:34.431Z,16.13
2018-05-11T02:07:01.914Z,16.08
2018-05-11T02:09:29.395Z,16.05
2018-05-11T02:11:56.838Z,16.06
2018-05-11T02:14:24.303Z,15.98
2018-05-11T02:16:51.765Z,15.96
2018-05-11T02:19:19.226Z,15.91
2018-05-11T02:21:46.888Z,15.95
2018-05-11T02:24:14.333Z,15.93
2018-05-11T02:26:41.784Z,15.92
2018-05-11T02:29:09.206Z,15.95
2018-05-11T02:31:36.642Z,15.90
2018-05-11T02:34:04.123Z,15.93
2018-05-11T02:36:31.588Z,15.88
2018-05-11T02:38:59.502Z,15.90
2018-05-11T02:41:26.934Z,15.87
2018-05-11T02:43:54.384Z,15.89
2018-05-11T02:46:21.836Z,15.88
2018-05-11T02:48:49.308Z,15.90
2018-05-11T02:51:16.743Z,15.89
2018-05-11T02:53:44.211Z,15.90
2018-05-11T02:56:11.683Z,15.86
2018-05-11T02:58:39.129Z,15.78
2018-05-11T03:01:06.611Z,15.81
2018-05-11T03:03:34.048Z,15.80
2018-05-11T03:06:01.517Z,15.77
2018-05-11T03:08:28.962Z,15.73
2018-05-11T03:10:56.845Z,15.74
2018-05-11T03:13:24.284Z,15.70
2018-05-11T03:15:51.720Z,15.72
2018-05-11T03:18:19.203Z,15.71
2018-05-11T03:20:46.675Z,15.65
2018-05-11T03:23:14.123Z,15.66
2018-05-11T03:25:41.609Z,15.66
2018-05-11T03:28:09.073Z,15.63
2018-05-11T03:30:36.596Z,15.61
2018-05-11T03:33:04.094Z,15.49
2018-05-11T03:35:31.542Z,15.56
2018-05-11T03:37:58.984Z,15.60
2018-05-11T03:40:26.429Z,15.64
2018-05-11T03:42:53.919Z,15.59
2018-05-11T03:45:21.399Z,15.53
2018-05-11T03:47:48.852Z,15.59
2018-05-11T03:50:16.305Z,15.53
2018-05-11T03:52:43.763Z,15.53
2018-05-11T03:55:11.201Z,15.52
2018-05-11T03:57:38.654Z,15.55
2018-05-11T04:00:06.205Z,15.50
2018-05-11T04:02:45.403Z,15.42
2018-05-11T04:05:24.586Z,15.36
2018-05-11T04:08:03.808Z,15.38
2018-05-11T04:10:31.243Z,15.41
2018-05-11T04:12:58.725Z,15.39
2018-05-11T04:15:26.200Z,15.27
2018-05-11T04:17:53.681Z,15.26
2018-05-11T04:20:33.175Z,15.26
2018-05-11T04:23:00.675Z,15.31
2018-05-11T04:25:28.126Z,15.35
2018-05-11T04:27:56.204Z,15.43
2018-05-11T04:30:28.608Z,15.45
2018-05-11T04:32:56.088Z,15.44
2018-05-11T04:35:23.592Z,15.41
2018-05-11T04:37:51.035Z,15.42
2018-05-11T04:40:18.568Z,15.42
2018-05-11T04:42:46.053Z,15.36
2018-05-11T04:45:13.586Z,15.36
2018-05-11T04:47:41.040Z,15.33
2018-05-11T04:50:08.497Z,15.30
2018-05-11T04:52:36.026Z,15.31
2018-05-11T04:55:03.513Z,15.31
2018-05-11T04:57:31.102Z,15.29
2018-05-11T04:59:58.558Z,15.25
2018-05-11T05:02:26.037Z,15.22
2018-05-11T05:04:53.502Z,15.21
2018-05-11T05:07:22.089Z,15.26
2018-05-11T05:09:49.595Z,15.32
2018-05-11T05:12:17.085Z,15.38
2018-05-11T05:14:44.578Z,15.37
2018-05-11T05:17:12.019Z,15.40
2018-05-11T05:19:39.448Z,15.40
2018-05-11T05:22:07.551Z,15.42
2018-05-11T05:24:34.999Z,15.38
2018-05-11T05:27:02.435Z,15.39
2018-05-11T05:32:23.149Z,15.38
2018-05-11T05:34:50.651Z,15.37
2018-05-11T05:37:18.105Z,15.41
2018-05-11T05:39:45.757Z,15.38
2018-05-11T05:42:13.178Z,15.31
2018-05-11T05:44:40.641Z,15.29
2018-05-11T05:47:08.202Z,15.28
2018-05-11T05:49:35.656Z,15.25
2018-05-11T05:52:03.208Z,15.29
2018-05-11T05:54:30.571Z,15.35
2018-05-11T05:56:58.105Z,15.37
2018-05-11T05:59:25.621Z,15.34
2018-05-11T06:01:53.163Z,15.35
2018-05-11T06:04:20.683Z,15.29
2018-05-11T06:06:48.143Z,15.23
2018-05-11T06:09:15.623Z,15.24
2018-05-11T06:11:43.063Z,15.26
2018-05-11T06:14:10.553Z,15.29
2018-05-11T06:16:38.022Z,15.34
2018-05-11T06:19:05.646Z,15.39
2018-05-11T06:21:33.114Z,15.40
2018-05-11T06:24:00.659Z,15.40
2018-05-11T06:26:28.265Z,15.37
2018-05-11T06:28:56.583Z,15.35
2018-05-11T06:31:24.053Z,15.36
2018-05-11T06:33:54.901Z,15.41
2018-05-11T06:36:22.351Z,15.40
2018-05-11T06:38:50.718Z,15.42
2018-05-11T06:41:18.240Z,15.45
2018-05-11T06:43:45.715Z,15.59
2018-05-11T06:46:13.187Z,15.67
2018-05-11T06:48:41.686Z,15.68
2018-05-11T06:51:09.291Z,15.73
2018-05-11T06:53:37.696Z,15.77
2018-05-11T06:56:05.718Z,15.81
2018-05-11T06:58:33.222Z,15.87
2018-05-11T07:01:05.949Z,15.83
2018-05-11T07:03:34.350Z,15.81
2018-05-11T07:06:02.554Z,15.90
2018-05-11T07:08:30.028Z,15.92
2018-05-11T07:10:57.538Z,15.92
2018-05-11T07:13:25.248Z,15.96
2018-05-11T07:15:52.741Z,15.99
2018-05-11T07:18:20.464Z,16.05
2018-05-11T07:20:52.224Z,16.07
2018-05-11T07:23:20.204Z,16.00
2018-05-11T07:25:47.768Z,16.06
2018-05-11T07:28:15.521Z,16.03
2018-05-11T07:30:45.793Z,15.99
2018-05-11T07:33:13.315Z,15.96
2018-05-11T07:35:41.560Z,15.91
2018-05-11T07:38:09.464Z,15.95
2018-05-11T07:40:38.775Z,15.93
2018-05-11T07:43:07.710Z,16.00
2018-05-11T07:45:40.432Z,16.03
2018-05-11T07:48:07.898Z,15.97
2018-05-11T07:50:40.660Z,15.97
2018-05-11T07:53:08.408Z,15.98
2018-05-11T07:55:35.925Z,15.99
2018-05-11T07:58:03.374Z,16.01
2018-05-11T08:00:32.044Z,16.04
2018-05-11T08:02:59.779Z,16.01
2018-05-11T08:05:27.327Z,15.96
2018-05-11T08:07:55.356Z,15.97
2018-05-11T08:10:23.048Z,16.02
2018-05-11T08:12:50.598Z,16.01
2018-05-11T08:15:18.140Z,16.02
2018-05-11T08:17:45.844Z,16.03
2018-05-11T08:20:13.302Z,16.04
2018-05-11T08:22:40.902Z,16.06
2018-05-11T08:25:08.573Z,16.11
2018-05-11T08:27:36.166Z,16.17
2018-05-11T08:30:03.805Z,16.16
2018-05-11T08:32:31.728Z,16.21
2018-05-11T08:35:01.247Z,16.21
2018-05-11T08:37:28.913Z,16.30
2018-05-11T08:39:56.667Z,16.36
2018-05-11T08:42:24.274Z,16.41
2018-05-11T08:44:51.819Z,16.38
2018-05-11T08:47:19.329Z,16.38
2018-05-11T08:49:47.001Z,16.41
2018-05-11T08:52:15.476Z,16.45
2018-05-11T08:54:45.407Z,16.44
2018-05-11T08:57:16.622Z,16.39
2018-05-11T08:59:45.159Z,16.36
2018-05-11T09:02:12.705Z,16.38
2018-05-11T09:04:40.188Z,16.39
2018-05-11T09:07:08.771Z,16.41
2018-05-11T09:09:36.245Z,16.43
2018-05-11T09:12:04.646Z,16.43
2018-05-11T09:14:32.219Z,16.49
2018-05-11T09:16:59.670Z,16.60
2018-05-11T09:19:41.851Z,16.70
2018-05-11T09:22:10.230Z,16.81
2018-05-11T09:24:37.631Z,16.86
2018-05-11T09:27:05.291Z,16.89
2018-05-11T09:29:32.789Z,16.90
2018-05-11T09:32:00.290Z,16.89
2018-05-11T09:34:27.756Z,16.91
2018-05-11T09:36:55.538Z,16.95
2018-05-11T09:39:23.189Z,16.98
2018-05-11T09:41:50.667Z,16.89
2018-05-11T09:44:18.135Z,16.81
2018-05-11T09:46:45.648Z,16.82
2018-05-11T09:49:22.793Z,16.82
2018-05-11T09:51:50.255Z,16.86
2018-05-11T09:54:17.827Z,16.89
2018-05-11T09:56:46.254Z,16.86
2018-05-11T09:59:13.855Z,16.79
2018-05-11T10:01:41.391Z,16.77
2018-05-11T10:04:08.861Z,16.76
2018-05-11T10:06:36.364Z,16.80
2018-05-11T10:12:01.659Z,17.00
2018-05-11T10:14:29.130Z,17.07
2018-05-11T10:16:57.403Z,17.21
2018-05-11T10:19:24.875Z,17.29
2018-05-11T10:21:52.357Z,17.39
2018-05-11T10:24:19.862Z,17.42
2018-05-11T10:26:47.328Z,17.48
2018-05-11T10:29:15.113Z,17.52
2018-05-11T10:31:42.604Z,17.57
2018-05-11T10:34:10.072Z,17.62
2018-05-11T10:36:37.566Z,17.74
2018-05-11T10:41:58.602Z,17.86
2018-05-11T10:44:26.384Z,18.01
2018-05-11T10:46:53.864Z,18.15
2018-05-11T10:49:21.417Z,18.19
2018-05-11T10:51:49.110Z,18.29
2018-05-11T10:54:16.584Z,18.30
2018-05-11T10:56:44.046Z,18.40
2018-05-11T10:59:11.492Z,18.36
2018-05-11T11:01:38.996Z,18.33
2018-05-11T11:04:07.406Z,18.44
2018-05-11T11:06:34.884Z,18.47
2018-05-11T11:09:02.396Z,18.56
2018-05-11T11:11:29.866Z,18.61
2018-05-11T11:13:57.418Z,18.70
2018-05-11T11:16:24.942Z,18.95
2018-05-11T11:18:52.427Z,19.21
2018-05-11T11:21:19.990Z,19.33
2018-05-11T11:23:47.717Z,19.33
2018-05-11T11:26:15.221Z,19.20
2018-05-11T11:28:42.697Z,19.15
2018-05-11T11:31:10.193Z,19.04
2018-05-11T11:33:37.682Z,18.92
2018-05-11T11:36:05.458Z,18.89
2018-05-11T11:38:33.220Z,18.77
2018-05-11T11:41:01.707Z,18.71
2018-05-11T11:43:29.157Z,18.63
2018-05-11T11:45:56.649Z,18.65
2018-05-11T11:48:24.140Z,18.66
2018-05-11T11:50:51.627Z,18.68
2018-05-11T11:53:19.115Z,18.78
2018-05-11T11:55:49.193Z,19.03
2018-05-11T11:58:16.796Z,19.39
2018-05-11T12:00:44.250Z,19.97
2018-05-11T12:03:11.759Z,20.48
2018-05-11T12:05:39.218Z,20.68
2018-05-11T12:08:06.698Z,20.74
2018-05-11T12:10:34.222Z,20.64
2018-05-11T12:13:01.706Z,20.51
2018-05-11T12:15:29.252Z,20.25
2018-05-11T12:17:56.728Z,19.91
2018-05-11T12:20:24.210Z,19.73
2018-05-11T12:22:51.712Z,19.58
2018-05-11T12:25:19.451Z,19.54
2018-05-11T12:27:47.145Z,19.94
2018-05-11T12:30:14.758Z,20.67
2018-05-11T12:32:42.233Z,21.28
2018-05-11T12:35:09.705Z,21.82
2018-05-11T12:37:37.368Z,22.00
2018-05-11T12:40:04.844Z,21.85
2018-05-11T12:42:32.291Z,21.43
2018-05-11T12:44:59.740Z,21.11
2018-05-11T12:47:27.270Z,20.77
2018-05-11T12:49:54.856Z,20.46
2018-05-11T12:52:22.427Z,20.13
2018-05-11T12:54:50.123Z,20.04
2018-05-11T12:57:17.837Z,20.38
2018-05-11T12:59:50.523Z,20.82
2018-05-11T13:02:18.062Z,21.30
2018-05-11T13:04:46.065Z,21.70
2018-05-11T13:07:14.909Z,22.08
2018-05-11T13:09:42.571Z,22.22
2018-05-11T13:12:11.198Z,22.49
2018-05-11T13:14:38.732Z,22.63
2018-05-11T13:17:06.243Z,22.66
2018-05-11T13:19:39.435Z,22.47
2018-05-11T13:22:06.998Z,22.25
2018-05-11T13:24:34.505Z,21.91
2018-05-11T13:27:01.982Z,21.51
2018-05-11T13:29:29.426Z,21.18
2018-05-11T13:31:56.936Z,21.08
2018-05-11T13:34:24.440Z,21.28
2018-05-11T13:36:51.899Z,21.52
2018-05-11T13:39:19.404Z,21.82
2018-05-11T13:41:48.010Z,22.11
2018-05-11T13:44:15.549Z,22.38
2018-05-11T13:46:43.865Z,22.59
2018-05-11T13:49:11.804Z,22.78
2018-05-11T13:51:39.266Z,22.90
2018-05-11T13:54:06.689Z,23.09
2018-05-11T13:56:34.250Z,23.25
2018-05-11T13:59:07.316Z,23.41
2018-05-11T14:01:35.044Z,23.45
2018-05-11T14:04:02.510Z,23.07
2018-05-11T14:06:29.979Z,22.76
2018-05-11T14:08:57.444Z,22.50
2018-05-11T14:11:24.887Z,22.18
2018-05-11T14:13:53.052Z,21.87
2018-05-11T14:16:21.984Z,21.61
2018-05-11T14:18:49.447Z,21.41
2018-05-11T14:21:16.902Z,21.29
2018-05-11T14:23:44.468Z,21.17
2018-05-11T14:26:11.997Z,21.08
2018-05-11T14:28:39.459Z,20.94
2018-05-11T14:31:11.919Z,20.85
2018-05-11T14:33:39.404Z,20.79
2018-05-11T14:36:06.834Z,20.72
2018-05-11T14:38:34.386Z,20.68
2018-05-11T14:41:01.894Z,20.65
2018-05-11T14:43:29.326Z,20.67
2018-05-11T14:45:56.792Z,20.86
2018-05-11T14:48:24.256Z,21.07
2018-05-11T14:50:51.742Z,21.35
2018-05-11T14:53:19.277Z,21.64
2018-05-11T14:55:46.964Z,21.76
2018-05-11T14:58:14.587Z,21.80
2018-05-11T15:00:47.000Z,21.75
2018-05-11T15:03:14.491Z,21.62
2018-05-11T15:05:41.962Z,21.49
2018-05-11T15:08:09.497Z,21.37
2018-05-11T15:10:37.001Z,21.22
2018-05-11T15:13:04.487Z,21.11
2018-05-11T15:15:32.245Z,20.97
2018-05-11T15:17:59.643Z,20.83
2018-05-11T15:20:27.112Z,20.80
2018-05-11T15:22:54.577Z,20.81
2018-05-11T15:25:22.037Z,20.87
2018-05-11T15:27:49.519Z,20.95
2018-05-11T15:30:17.040Z,21.02
2018-05-11T15:32:44.528Z,21.05
2018-05-11T15:35:12.084Z,21.10
2018-05-11T15:37:39.547Z,21.12
2018-05-11T15:40:12.032Z,21.06
2018-05-11T15:42:39.541Z,20.93
2018-05-11T15:45:07.026Z,20.88
2018-05-11T15:47:34.603Z,20.86
2018-05-11T15:50:03.261Z,20.85
2018-05-11T15:52:30.752Z,20.82
2018-05-11T15:54:58.231Z,20.77
2018-05-11T15:57:25.767Z,20.71
2018-05-11T15:59:53.245Z,20.66
2018-05-11T16:02:20.920Z,20.57
2018-05-11T16:04:48.396Z,20.53
2018-05-11T16:07:15.848Z,20.48
2018-05-11T16:09:43.311Z,20.49
2018-05-11T16:12:10.888Z,20.48
2018-05-11T16:14:38.357Z,20.52
2018-05-11T16:17:05.819Z,20.50
2018-05-11T16:19:33.324Z,20.48
2018-05-11T16:22:00.803Z,20.47
2018-05-11T16:24:28.288Z,20.47
2018-05-11T16:26:56.763Z,20.43
2018-05-11T16:29:24.231Z,20.44
2018-05-11T16:31:51.984Z,20.42
2018-05-11T16:34:19.648Z,20.40
2018-05-11T16:36:47.180Z,20.41
2018-05-11T16:39:14.637Z,20.37
2018-05-11T16:41:43.013Z,20.36
2018-05-11T16:44:10.471Z,20.34
2018-05-11T16:46:37.926Z,20.25
2018-05-11T16:49:05.482Z,20.17
2018-05-11T16:51:32.928Z,20.16
2018-05-11T16:54:00.383Z,20.18
2018-05-11T16:56:27.836Z,20.15
2018-05-11T16:58:55.294Z,20.14
2018-05-11T17:01:22.764Z,20.13
2018-05-11T17:09:27.635Z,20.08
2018-05-11T17:12:03.420Z,20.04
2018-05-11T17:17:04.919Z,20.01
2018-05-11T17:19:37.655Z,19.95
2018-05-11T17:22:13.790Z,19.91
2018-05-11T17:27:39.122Z,19.92
2018-05-11T17:35:32.733Z,19.98
2018-05-11T17:38:02.382Z,19.96
2018-05-11T17:40:31.457Z,19.97
2018-05-11T17:42:59.522Z,19.96
2018-05-11T17:45:28.360Z,19.97
2018-05-11T17:50:29.710Z,19.94
2018-05-11T17:52:59.602Z,19.96
2018-05-11T17:55:27.541Z,19.95
2018-05-11T17:57:55.784Z,19.92
2018-05-11T18:00:47.030Z,19.90
2018-05-11T18:03:16.074Z,19.85
2018-05-11T18:08:49.345Z,19.76
2018-05-11T18:11:18.443Z,19.75
2018-05-11T18:13:45.987Z,19.77
2018-05-11T18:16:13.461Z,19.73
2018-05-11T18:18:42.035Z,19.72
2018-05-11T18:21:09.789Z,19.68
2018-05-11T18:23:37.542Z,19.63
2018-05-11T18:26:06.238Z,19.61
2018-05-11T18:28:34.476Z,19.62
2018-05-11T18:31:02.283Z,19.63
2018-05-11T18:33:30.376Z,19.62
2018-05-11T18:35:59.047Z,19.51
2018-05-11T18:38:27.561Z,19.50
2018-05-11T18:41:00.121Z,19.44
2018-05-11T18:43:27.659Z,19.40
2018-05-11T18:45:55.997Z,19.37
2018-05-11T18:48:23.737Z,19.39
2018-05-11T18:50:51.673Z,19.41
2018-05-11T18:53:19.476Z,19.35
2018-05-11T18:55:46.896Z,19.31
2018-05-11T18:58:14.694Z,19.28
2018-05-11T19:00:45.496Z,19.25
2018-05-11T19:03:16.031Z,19.20
2018-05-11T19:08:18.750Z,19.19
2018-05-11T19:14:11.484Z,19.11
2018-05-11T19:21:54.029Z,19.06
2018-05-11T19:24:22.469Z,19.08
2018-05-11T19:26:50.490Z,19.10
2018-05-11T19:29:32.318Z,19.15
2018-05-11T19:32:19.442Z,19.17
2018-05-11T19:35:04.121Z,19.22
2018-05-11T19:37:32.642Z,19.25
2018-05-11T19:45:12.757Z,19.30
2018-05-11T19:47:40.368Z,19.28
2018-05-11T19:50:20.556Z,19.26
2018-05-11T19:52:54.435Z,19.23
2018-05-11T19:55:22.062Z,19.22
2018-05-11T19:57:57.674Z,19.20
2018-05-11T20:02:59.596Z,19.16
2018-05-11T20:05:29.608Z,19.20
2018-05-11T20:07:57.122Z,19.20
2018-05-11T20:10:25.778Z,19.22
2018-05-11T20:12:53.261Z,19.20
2018-05-11T20:15:20.830Z,19.16
2018-05-11T20:17:48.461Z,19.12
2018-05-11T20:23:08.638Z,19.08
2018-05-11T20:25:37.404Z,19.05
2018-05-11T20:28:04.923Z,19.02
2018-05-11T20:30:32.418Z,19.02
2018-05-11T20:32:59.918Z,18.99
2018-05-11T20:35:27.514Z,18.97
2018-05-11T20:37:54.990Z,18.98
2018-05-11T20:40:46.133Z,18.94
2018-05-11T20:43:13.588Z,18.96
2018-05-11T20:45:41.978Z,18.96
2018-05-11T20:48:10.334Z,18.97
2018-05-11T20:50:37.930Z,18.96
2018-05-11T20:53:08.226Z,18.92
2018-05-11T20:55:35.812Z,18.89
2018-05-11T20:58:03.293Z,18.86
2018-05-11T21:00:30.759Z,18.82
2018-05-11T21:02:58.272Z,18.80
2018-05-11T21:05:25.736Z,18.73
2018-05-11T21:07:53.856Z,18.70
2018-05-11T21:10:31.240Z,18.68
2018-05-11T21:12:58.856Z,18.68
2018-05-11T21:15:26.408Z,18.68
2018-05-11T21:17:54.293Z,18.67
2018-05-11T21:20:40.539Z,18.67
2018-05-11T21:23:08.243Z,18.65
2018-05-11T21:25:35.742Z,18.65
2018-05-11T21:28:03.202Z,18.65
2018-05-11T21:30:30.920Z,18.64
2018-05-11T21:32:58.580Z,18.60
2018-05-11T21:35:26.068Z,18.59
2018-05-11T21:37:53.542Z,18.60
2018-05-11T21:40:21.051Z,18.53
2018-05-11T21:42:49.522Z,18.50
2018-05-11T21:45:16.959Z,18.48
2018-05-11T21:47:44.786Z,18.43
2018-05-11T21:50:12.320Z,18.45
2018-05-11T21:52:39.984Z,18.46
2018-05-11T21:55:07.433Z,18.46
2018-05-11T21:57:34.894Z,18.47
2018-05-11T22:00:02.582Z,18.46
2018-05-11T22:02:30.036Z,18.43
2018-05-11T22:04:57.563Z,18.40
2018-05-11T22:07:25.816Z,18.41
2018-05-11T22:10:02.972Z,18.40
2018-05-11T22:12:30.483Z,18.38
2018-05-11T22:14:57.990Z,18.37
2018-05-11T22:17:25.524Z,18.34
2018-05-11T22:19:53.007Z,18.31
2018-05-11T22:22:20.551Z,18.25
2018-05-11T22:24:48.745Z,18.18
2018-05-11T22:27:16.467Z,18.21
2018-05-11T22:29:43.915Z,18.17
2018-05-11T22:32:11.395Z,18.14
2018-05-11T22:34:38.881Z,18.16
2018-05-11T22:37:06.370Z,18.14
2018-05-11T22:39:33.871Z,18.13
2018-05-11T22:42:02.031Z,18.10
2018-05-11T22:44:29.715Z,18.08
2018-05-11T22:46:58.081Z,18.04
2018-05-11T22:49:37.110Z,17.99
2018-05-11T22:52:05.275Z,17.97
2018-05-11T22:54:38.059Z,17.93
2018-05-11T22:57:05.771Z,17.92
2018-05-11T22:59:53.403Z,17.94
2018-05-11T23:02:21.787Z,17.94
2018-05-11T23:04:50.657Z,17.89
2018-05-11T23:13:04.675Z,17.65
2018-05-11T23:15:34.112Z,17.66
2018-05-11T23:18:02.496Z,17.65
2018-05-11T23:20:35.191Z,17.67
2018-05-11T23:23:03.553Z,17.56
2018-05-11T23:25:31.558Z,17.51
2018-05-11T23:27:59.147Z,17.50
2018-05-11T23:30:26.725Z,17.49
2018-05-11T23:33:04.367Z,17.49
2018-05-11T23:35:31.921Z,17.45
2018-05-11T23:38:01.902Z,17.45
2018-05-11T23:43:41.207Z,17.39
2018-05-11T23:46:08.657Z,17.41
2018-05-11T23:48:36.195Z,17.36
2018-05-11T23:51:03.717Z,17.27
2018-05-11T23:53:31.221Z,17.24
2018-05-11T23:55:58.697Z,17.23
2018-05-11T23:58:26.211Z,17.26
